Time;durP1;ratioP1;P1;durP2;ratioP2;P2;SDS_P1;SDS_P2;PMS_P1;PMS_P2;Temp;Humidity;BMP_temperature;BMP_pressure;BME280_temperature;BME280_humidity;BME280_pressure;Samples;Min_cycle;Max_cycle;Signal;HPM_P1;HPM_P2
2022/10/11 00:27:21;;;;;;;9.48;1.15;;;12.00;99.90;;;;;;6336752;22;20022;-81
2022/10/11 01:45:23;;;;;;;11.45;2.35;;;11.70;99.90;;;;;;6358455;22;20409;-80
2022/10/11 01:48:01;;;;;;;11.80;2.03;;;11.70;99.90;;;;;;6344116;22;20026;-80
2022/10/11 01:51:01;;;;;;;9.93;1.60;;;11.70;99.90;;;;;;6344600;22;20342;-80
2022/10/11 03:02:29;;;;;;;14.07;1.58;;;9.80;99.90;;;;;;6345393;22;20014;-80
2022/10/11 03:04:55;;;;;;;9.07;1.20;;;9.60;99.90;;;;;;6371293;22;20023;-80
2022/10/11 03:07:23;;;;;;;13.77;1.30;;;9.50;99.90;;;;;;6344082;22;20025;-80
2022/10/11 03:09:51;;;;;;;12.02;1.40;;;9.40;99.90;;;;;;6343811;22;20020;-80
2022/10/11 03:12:17;;;;;;;8.60;1.23;;;9.40;99.90;;;;;;6342072;22;20460;-80
2022/10/11 04:21:10;;;;;;;11.82;1.77;;;8.20;99.90;;;;;;6342835;22;20019;-79
2022/10/11 04:23:36;;;;;;;8.98;0.98;;;8.20;99.90;;;;;;6345005;22;20015;-80
2022/10/11 04:26:08;;;;;;;9.10;1.73;;;8.20;99.90;;;;;;6344911;22;20014;-80
2022/10/11 04:28:37;;;;;;;6.63;1.70;;;8.20;99.90;;;;;;6344536;22;20021;-80
2022/10/11 04:31:06;;;;;;;7.93;1.38;;;8.10;99.90;;;;;;6344636;22;20025;-80
2022/10/11 04:33:33;;;;;;;12.52;2.63;;;8.20;99.90;;;;;;6342086;22;20014;-79
2022/10/11 04:35:58;;;;;;;11.32;1.58;;;8.10;99.90;;;;;;6344248;22;20452;-80
2022/10/11 04:38:24;;;;;;;8.50;1.63;;;8.10;99.90;;;;;;6344044;22;20057;-80
2022/10/11 05:42:14;;;;;;;9.18;1.92;;;7.90;99.90;;;;;;6333170;22;20023;-80
2022/10/11 05:44:43;;;;;;;12.43;2.70;;;7.90;99.90;;;;;;6337700;22;20026;-80
2022/10/11 05:47:08;;;;;;;10.98;2.83;;;7.90;99.90;;;;;;6338897;22;20087;-80
2022/10/11 05:49:37;;;;;;;8.88;2.17;;;7.90;99.90;;;;;;6337812;22;20495;-80
2022/10/11 05:52:05;;;;;;;13.50;2.20;;;7.90;99.90;;;;;;6337746;22;20019;-80
2022/10/11 05:54:31;;;;;;;9.52;2.35;;;7.90;99.90;;;;;;6338046;22;20010;-80
2022/10/11 05:56:56;;;;;;;11.82;2.15;;;7.90;99.90;;;;;;6337552;22;20061;-80
2022/10/11 06:35:27;;;;;;;9.65;2.10;;;8.20;99.90;;;;;;6313121;22;20520;-80
2022/10/11 06:37:56;;;;;;;11.45;3.08;;;8.20;99.90;;;;;;6280435;22;20015;-81
2022/10/11 06:40:21;;;;;;;8.18;2.20;;;8.30;99.90;;;;;;6279836;22;20166;-79
2022/10/11 06:42:56;;;;;;;12.68;2.85;;;8.30;99.90;;;;;;6279880;22;20077;-80
2022/10/11 06:45:21;;;;;;;12.50;2.70;;;8.40;99.90;;;;;;6280513;22;20457;-80
2022/10/11 06:47:47;;;;;;;12.55;2.20;;;8.40;99.90;;;;;;6280541;22;20019;-81
2022/10/11 06:50:12;;;;;;;14.50;3.65;;;8.50;99.90;;;;;;6280614;22;20015;-80
2022/10/11 06:52:38;;;;;;;11.38;2.10;;;8.50;99.90;;;;;;6280355;22;20113;-80
2022/10/11 06:55:04;;;;;;;8.13;2.75;;;8.60;99.90;;;;;;6307158;22;20015;-79
2022/10/11 06:57:30;;;;;;;9.32;2.17;;;8.70;99.90;;;;;;6307399;22;20012;-79
2022/10/11 07:02:31;;;;;;;15.88;2.40;;;8.70;99.90;;;;;;6306068;22;20023;-79
2022/10/11 07:04:56;;;;;;;11.57;2.05;;;8.80;99.90;;;;;;6307603;22;20022;-79
2022/10/11 08:13:46;;;;;;;15.25;2.28;;;11.20;99.90;;;;;;6332591;22;20019;-80
2022/10/11 08:16:12;;;;;;;13.27;2.17;;;11.30;99.90;;;;;;6338960;22;20023;-80
2022/10/11 08:18:38;;;;;;;11.27;1.75;;;11.50;99.90;;;;;;6338816;22;20036;-80
2022/10/11 08:21:12;;;;;;;13.43;2.17;;;11.60;99.90;;;;;;6338878;22;20029;-79
2022/10/11 08:23:38;;;;;;;11.43;2.00;;;11.70;99.90;;;;;;6338709;22;20147;-79
2022/10/11 08:26:05;;;;;;;6.97;1.50;;;11.80;99.90;;;;;;6338478;22;20464;-80
2022/10/11 08:28:31;;;;;;;10.88;1.98;;;12.00;99.90;;;;;;6338774;22;20057;-80
2022/10/11 08:30:57;;;;;;;10.68;2.75;;;12.10;99.90;;;;;;6340287;22;20446;-80
2022/10/11 08:33:24;;;;;;;9.48;1.98;;;12.30;99.90;;;;;;6338755;22;20018;-80
2022/10/11 08:35:51;;;;;;;9.35;2.30;;;12.40;99.90;;;;;;6338194;22;20014;-80
2022/10/11 09:42:09;;;;;;;10.68;1.80;;;14.20;99.90;;;;;;6327707;22;20015;-80
2022/10/11 09:44:48;;;;;;;11.45;2.08;;;14.40;99.90;;;;;;6338157;22;20029;-80
2022/10/11 09:47:23;;;;;;;9.63;1.73;;;14.40;99.90;;;;;;6337808;22;20086;-80
2022/10/11 09:50:11;;;;;;;10.85;1.73;;;14.60;99.90;;;;;;6338195;22;20496;-80
2022/10/11 09:52:50;;;;;;;6.25;1.45;;;14.70;99.90;;;;;;6340325;22;20021;-79
2022/10/11 09:55:39;;;;;;;7.93;1.60;;;14.80;99.90;;;;;;6336974;22;20015;-79
2022/10/11 09:58:23;;;;;;;7.28;1.40;;;14.90;99.90;;;;;;6338295;22;20029;-80
2022/10/11 10:01:04;;;;;;;9.52;1.42;;;14.90;99.90;;;;;;6339976;22;20007;-80
2022/10/11 10:03:32;;;;;;;7.70;1.38;;;15.00;99.90;;;;;;6337789;22;20019;-79
2022/10/11 10:06:07;;;;;;;4.50;1.13;;;15.00;99.90;;;;;;6337495;22;20014;-79
2022/10/11 10:08:36;;;;;;;11.85;1.38;;;15.10;99.90;;;;;;6336596;22;20046;-80
2022/10/11 10:11:05;;;;;;;5.57;1.15;;;15.20;99.90;;;;;;6337419;22;20091;-80
2022/10/11 10:13:42;;;;;;;5.05;1.33;;;15.20;99.90;;;;;;6337111;22;20086;-80
2022/10/11 10:16:20;;;;;;;7.28;1.15;;;15.30;99.90;;;;;;6337655;22;20026;-83
2022/10/11 10:18:58;;;;;;;7.28;1.52;;;15.40;99.90;;;;;;6337589;22;20029;-80
2022/10/11 10:21:42;;;;;;;9.52;2.15;;;15.50;99.90;;;;;;6337791;22;20019;-81
2022/10/11 10:24:18;;;;;;;7.05;1.48;;;15.60;99.90;;;;;;6337528;22;20019;-84
2022/10/11 11:48:30;;;;;;;4.85;1.00;;;16.10;99.90;;;;;;6332243;22;20063;-79
2022/10/11 12:23:28;;;;;;;9.10;1.40;;;16.30;99.90;;;;;;6338393;22;20027;-79
2022/10/11 12:26:28;;;;;;;11.82;1.30;;;16.30;99.90;;;;;;6338690;22;20061;-80
2022/10/11 12:29:16;;;;;;;10.23;2.85;;;16.40;99.90;;;;;;6338611;22;20023;-80
2022/10/11 12:31:42;;;;;;;12.02;4.68;;;16.40;99.90;;;;;;6338624;22;20021;-79
2022/10/11 12:34:08;;;;;;;14.35;2.58;;;16.50;99.90;;;;;;6338704;22;20023;-83
2022/10/11 12:36:41;;;;;;;9.93;2.85;;;16.50;99.90;;;;;;6339250;22;20014;-79
2022/10/11 12:39:19;;;;;;;14.00;3.40;;;16.50;99.90;;;;;;6340245;22;20380;-78
2022/10/11 12:41:52;;;;;;;11.55;2.78;;;16.50;99.90;;;;;;6338622;22;20042;-78
2022/10/11 12:44:17;;;;;;;12.45;3.35;;;16.40;99.90;;;;;;6338542;22;20030;-79
2022/10/11 12:46:49;;;;;;;9.15;1.65;;;16.40;99.90;;;;;;6338544;22;20019;-82
2022/10/11 12:49:40;;;;;;;6.57;1.02;;;16.40;99.90;;;;;;6338286;22;20045;-79
2022/10/11 13:37:16;;;;;;;8.07;1.40;;;16.10;99.90;;;;;;6334901;22;20022;-79
2022/10/11 13:39:41;;;;;;;5.57;1.05;;;16.10;99.90;;;;;;6338508;22;20099;-79
2022/10/11 13:44:44;;;;;;;5.45;1.10;;;16.10;99.90;;;;;;6309834;22;20022;-81
2022/10/11 13:47:16;;;;;;;5.65;1.20;;;16.00;99.90;;;;;;6281269;22;20058;-80
2022/10/11 13:49:49;;;;;;;7.10;1.10;;;15.90;99.90;;;;;;6308644;22;20038;-79
2022/10/11 13:52:20;;;;;;;;;;;16.00;99.90;;;;;;6281665;22;20455;-79
2022/10/11 13:54:59;;;;;;;6.88;0.73;;;15.90;99.90;;;;;;6280951;22;19961;-79
2022/10/11 13:57:41;;;;;;;5.88;1.00;;;15.90;99.90;;;;;;6281032;22;20023;-80
2022/10/11 14:00:09;;;;;;;4.28;0.98;;;15.90;99.90;;;;;;6281127;22;20023;-80
2022/10/11 15:01:22;;;;;;;10.75;1.17;;;15.10;99.90;;;;;;6331999;22;20260;-79
2022/10/11 15:03:48;;;;;;;5.55;1.63;;;15.10;99.90;;;;;;6306090;22;20019;-79
2022/10/11 15:06:23;;;;;;;9.90;0.90;;;15.10;99.90;;;;;;6280440;22;20063;-80
2022/10/11 15:08:58;;;;;;;6.07;1.08;;;15.00;99.90;;;;;;6280303;22;20218;-80
2022/10/11 15:11:24;;;;;;;4.45;0.90;;;15.00;99.90;;;;;;6280177;22;20057;-80
2022/10/11 15:13:49;;;;;;;5.05;1.13;;;14.90;99.90;;;;;;6280146;22;20038;-80
2022/10/11 15:16:18;;;;;;;6.50;0.80;;;14.80;99.90;;;;;;6280260;22;20335;-80
2022/10/11 15:18:49;;;;;;;8.18;0.82;;;14.70;99.90;;;;;;6280086;22;20517;-80
2022/10/11 15:21:17;;;;;;;5.93;0.95;;;14.60;99.90;;;;;;6280335;22;20447;-80
2022/10/11 15:23:42;;;;;;;7.78;1.35;;;14.60;99.90;;;;;;6280156;22;20386;-80
2022/10/11 15:26:18;;;;;;;8.57;0.95;;;14.50;99.90;;;;;;6280238;22;20458;-80
2022/10/11 15:28:44;;;;;;;5.32;0.80;;;14.50;99.90;;;;;;6280483;22;20074;-80
2022/10/11 15:31:10;;;;;;;7.18;1.30;;;14.50;99.90;;;;;;6280295;22;20454;-80
2022/10/11 15:33:37;;;;;;;7.75;0.88;;;14.50;99.90;;;;;;6307695;22;20474;-79
2022/10/11 15:36:04;;;;;;;11.27;1.30;;;14.50;99.90;;;;;;6280402;22;20011;-79
2022/10/11 15:38:29;;;;;;;6.57;1.20;;;14.50;99.90;;;;;;6280353;22;20454;-79
2022/10/11 15:40:55;;;;;;;9.57;1.40;;;14.40;99.90;;;;;;6280594;22;20090;-79
2022/10/11 15:43:26;;;;;;;7.45;1.00;;;14.40;99.90;;;;;;6280271;22;20023;-79
2022/10/11 15:45:52;;;;;;;4.18;0.90;;;14.30;99.90;;;;;;6280463;22;20022;-80
2022/10/11 15:48:20;;;;;;;8.63;0.98;;;14.30;99.90;;;;;;6279087;22;20026;-80
2022/10/11 15:50:46;;;;;;;4.68;0.77;;;14.20;99.90;;;;;;6280259;22;20342;-80
2022/10/11 15:53:16;;;;;;;7.90;1.13;;;14.20;99.90;;;;;;6280361;22;20011;-80
2022/10/11 15:55:45;;;;;;;8.25;1.13;;;14.10;99.90;;;;;;6280272;22;20466;-79
2022/10/11 15:58:32;;;;;;;5.95;1.60;;;14.10;99.90;;;;;;6279953;22;20094;-79
2022/10/11 16:01:03;;;;;;;11.57;2.75;;;14.10;99.90;;;;;;6280045;22;20046;-80
2022/10/11 16:03:33;;;;;;;6.80;1.33;;;14.00;99.90;;;;;;6279912;22;20026;-79
2022/10/11 16:05:59;;;;;;;8.52;1.40;;;14.00;99.90;;;;;;6279789;22;20154;-79
2022/10/11 16:11:08;;;;;;;6.55;1.30;;;13.80;99.90;;;;;;6313895;22;20065;-79
2022/10/11 16:13:34;;;;;;;5.47;1.00;;;13.70;99.90;;;;;;6280557;22;20047;-79
2022/10/11 16:16:01;;;;;;;5.32;1.05;;;13.60;99.90;;;;;;6280201;22;20020;-79
2022/10/11 16:18:27;;;;;;;7.18;1.45;;;13.60;99.90;;;;;;6307803;22;20011;-79
2022/10/11 16:20:53;;;;;;;10.55;1.60;;;13.50;99.90;;;;;;6279876;22;20015;-79
2022/10/11 16:23:20;;;;;;;6.50;1.75;;;13.40;99.90;;;;;;6279879;22;20015;-80
2022/10/11 16:26:15;;;;;;;7.25;1.13;;;13.30;99.90;;;;;;6279699;22;20443;-80
2022/10/11 16:28:41;;;;;;;5.18;0.85;;;13.20;99.90;;;;;;6279583;22;20375;-79
2022/10/11 17:16:23;;;;;;;6.38;1.42;;;11.40;99.90;;;;;;6336983;22;20019;-79
2022/10/11 17:18:49;;;;;;;9.65;1.60;;;11.20;99.90;;;;;;6339553;22;20264;-79
2022/10/11 17:21:20;;;;;;;5.80;1.73;;;11.10;99.90;;;;;;6339304;22;20007;-79
2022/10/11 17:23:47;;;;;;;7.47;1.67;;;11.10;99.90;;;;;;6339159;22;20068;-79
2022/10/11 17:26:25;;;;;;;7.72;2.17;;;11.00;99.90;;;;;;6339863;22;20430;-79
2022/10/11 17:28:55;;;;;;;9.30;1.70;;;11.00;99.90;;;;;;6341240;22;20011;-80
2022/10/11 17:31:21;;;;;;;6.70;1.70;;;10.90;99.90;;;;;;6340062;22;20038;-80
2022/10/11 17:33:47;;;;;;;5.30;1.80;;;10.90;99.90;;;;;;6338994;22;20065;-80
2022/10/11 17:36:33;;;;;;;4.28;1.48;;;10.80;99.90;;;;;;6339109;22;20335;-80
2022/10/11 20:14:24;;;;;;;11.65;3.58;;;8.40;99.90;;;;;;6335596;22;20030;-81
2022/10/11 20:42:24;;;;;;;10.35;4.10;;;8.20;99.90;;;;;;6305186;22;20018;-81
2022/10/11 21:07:31;;;;;;;9.27;4.88;;;7.90;99.90;;;;;;6373365;22;20025;-79
2022/10/11 21:17:36;;;;;;;8.90;4.30;;;7.80;99.90;;;;;;6246258;23;20567;-82
2022/10/11 21:21:10;;;;;;;11.57;4.75;;;7.70;99.90;;;;;;6220353;23;20056;-81
2022/10/11 21:23:39;;;;;;;8.80;4.35;;;7.70;99.90;;;;;;6102471;23;20105;-82
2022/10/11 21:26:10;;;;;;;8.63;4.38;;;7.60;99.90;;;;;;6137291;23;20057;-80
2022/10/11 21:28:36;;;;;;;10.80;4.57;;;7.70;99.90;;;;;;6367965;22;20018;-80
2022/10/11 21:31:09;;;;;;;8.23;3.97;;;7.70;99.90;;;;;;6345152;22;20500;-80
2022/10/11 21:33:36;;;;;;;9.32;3.85;;;7.70;99.90;;;;;;6344168;22;20102;-80
2022/10/11 21:36:06;;;;;;;5.68;3.53;;;7.70;99.90;;;;;;6343869;22;20115;-80
2022/10/11 22:51:13;;;;;;;9.50;5.07;;;7.30;99.90;;;;;;6335224;22;20042;-80
